createdAt,value
2019-02-12T00:00:22.809Z,77.31
2019-02-12T00:02:50.663Z,77.29
2019-02-12T00:05:17.252Z,77.32
2019-02-12T00:07:43.903Z,77.91
2019-02-12T00:10:10.460Z,77.05
2019-02-12T00:12:37.042Z,76.43
2019-02-12T00:15:05.491Z,76.51
2019-02-12T00:17:32.134Z,76.84
2019-02-12T00:19:58.717Z,76.80
2019-02-12T00:22:25.358Z,76.34
2019-02-12T00:24:51.936Z,76.51
2019-02-12T00:27:18.535Z,76.71
2019-02-12T00:29:45.246Z,77.29
2019-02-12T00:32:11.908Z,76.90
2019-02-12T00:34:38.566Z,76.08
2019-02-12T00:37:05.139Z,76.98
2019-02-12T00:39:31.710Z,76.39
2019-02-12T00:41:58.358Z,76.82
2019-02-12T00:44:24.974Z,77.24
2019-02-12T00:46:51.523Z,76.67
2019-02-12T00:49:18.064Z,76.91
2019-02-12T00:51:44.717Z,77.12
2019-02-12T00:54:11.321Z,76.86
2019-02-12T00:56:37.913Z,77.86
2019-02-12T00:59:04.466Z,77.61
2019-02-12T01:01:31.636Z,77.02
2019-02-12T01:03:58.270Z,76.78
2019-02-12T01:06:24.902Z,77.07
2019-02-12T01:08:51.582Z,77.15
2019-02-12T01:11:18.140Z,77.11
2019-02-12T01:13:44.765Z,77.13
2019-02-12T01:16:11.387Z,77.36
2019-02-12T01:18:39.172Z,77.12
2019-02-12T01:21:06.218Z,77.17
2019-02-12T01:23:36.471Z,76.74
2019-02-12T01:26:03.794Z,77.15
2019-02-12T01:28:31.175Z,77.59
2019-02-12T01:30:57.849Z,77.10
2019-02-12T01:33:24.462Z,78.12
2019-02-12T01:35:51.095Z,77.71
2019-02-12T01:38:17.649Z,77.59
2019-02-12T01:40:45.769Z,76.71
2019-02-12T01:43:12.703Z,77.07
2019-02-12T01:45:39.323Z,76.89
2019-02-12T01:48:06.337Z,77.57
2019-02-12T01:50:32.883Z,76.34
2019-02-12T01:52:59.443Z,76.65
2019-02-12T01:55:26.015Z,76.73
2019-02-12T01:57:52.711Z,76.34
2019-02-12T02:00:19.272Z,76.55
2019-02-12T02:02:45.879Z,76.72
2019-02-12T02:05:12.497Z,76.95
2019-02-12T02:07:39.070Z,76.32
2019-02-12T02:10:10.984Z,76.61
2019-02-12T02:12:37.607Z,76.12
2019-02-12T02:15:08.638Z,76.14
2019-02-12T02:17:36.423Z,76.43
2019-02-12T02:20:07.695Z,76.05
2019-02-12T02:22:34.293Z,76.12
2019-02-12T02:25:00.866Z,76.59
2019-02-12T02:27:27.492Z,75.52
2019-02-12T02:29:54.050Z,75.45
2019-02-12T02:32:20.656Z,76.37
2019-02-12T02:34:47.249Z,76.03
2019-02-12T02:37:13.936Z,75.69
2019-02-12T02:39:41.676Z,76.02
2019-02-12T02:42:11.194Z,76.18
2019-02-12T02:44:37.790Z,76.11
2019-02-12T02:47:04.769Z,75.84
2019-02-12T02:49:31.336Z,75.78
2019-02-12T02:51:57.936Z,74.84
2019-02-12T02:54:24.477Z,72.61
2019-02-12T02:56:51.064Z,74.16
2019-02-12T02:59:18.354Z,73.69
2019-02-12T03:01:44.953Z,73.22
2019-02-12T03:04:11.514Z,72.50
2019-02-12T03:06:38.088Z,72.39
2019-02-12T03:09:06.795Z,72.04
2019-02-12T03:11:37.221Z,72.05
2019-02-12T03:14:03.793Z,72.84
2019-02-12T03:16:30.389Z,72.82
2019-02-12T03:18:56.954Z,72.46
2019-02-12T03:21:23.651Z,72.42
2019-02-12T03:23:50.216Z,72.59
2019-02-12T03:26:16.878Z,71.80
2019-02-12T03:28:43.488Z,72.05
2019-02-12T03:31:10.042Z,71.06
2019-02-12T03:33:36.720Z,71.10
2019-02-12T03:36:03.373Z,70.70
2019-02-12T03:38:29.988Z,71.30
2019-02-12T03:40:56.619Z,71.23
2019-02-12T03:43:23.669Z,71.09
2019-02-12T03:45:50.207Z,70.31
2019-02-12T03:48:16.782Z,71.34
2019-02-12T03:50:43.338Z,70.93
2019-02-12T03:53:09.969Z,70.50
2019-02-12T03:55:36.534Z,70.96
2019-02-12T03:58:03.173Z,69.91
2019-02-12T04:00:29.808Z,70.09
2019-02-12T04:03:01.439Z,70.20
2019-02-12T04:05:28.100Z,68.76
2019-02-12T04:07:54.869Z,69.33
2019-02-12T04:10:21.492Z,68.55
2019-02-12T04:12:48.055Z,67.69
2019-02-12T04:15:16.383Z,68.29
2019-02-12T04:17:42.950Z,67.06
2019-02-12T04:20:09.598Z,67.99
2019-02-12T04:22:36.204Z,66.98
2019-02-12T04:25:03.356Z,66.96
2019-02-12T04:27:29.892Z,67.24
2019-02-12T04:29:56.532Z,66.43
2019-02-12T04:32:23.094Z,66.47
2019-02-12T04:34:49.754Z,66.25
2019-02-12T04:37:16.316Z,65.05
2019-02-12T04:39:42.888Z,65.89
2019-02-12T04:42:09.522Z,64.77
2019-02-12T04:44:36.132Z,64.35
2019-02-12T04:47:02.738Z,62.91
2019-02-12T04:49:29.291Z,63.80
2019-02-12T04:51:55.832Z,64.39
2019-02-12T04:54:22.466Z,63.35
2019-02-12T04:56:49.092Z,62.05
2019-02-12T04:59:15.708Z,62.54
2019-02-12T05:01:42.361Z,63.74
2019-02-12T05:04:08.931Z,63.34
2019-02-12T05:06:35.493Z,63.57
2019-02-12T05:09:07.768Z,62.54
2019-02-12T05:11:34.472Z,63.19
2019-02-12T05:14:01.068Z,61.84
2019-02-12T05:16:27.621Z,62.95
2019-02-12T05:18:55.926Z,63.47
2019-02-12T05:21:22.670Z,63.69
2019-02-12T05:23:49.276Z,63.40
2019-02-12T05:26:15.926Z,63.91
2019-02-12T05:28:42.615Z,64.55
2019-02-12T05:31:09.221Z,64.80
2019-02-12T05:33:35.829Z,64.85
2019-02-12T05:36:02.444Z,64.38
2019-02-12T05:38:29.038Z,65.43
2019-02-12T05:40:55.705Z,65.54
2019-02-12T05:43:22.299Z,65.72
2019-02-12T05:45:49.007Z,65.87
2019-02-12T05:48:15.614Z,65.74
2019-02-12T05:50:42.405Z,65.52
2019-02-12T05:53:09.103Z,64.85
2019-02-12T05:55:35.650Z,65.42
2019-02-12T05:58:02.266Z,65.81
2019-02-12T06:00:30.743Z,65.83
2019-02-12T06:02:57.323Z,65.78
2019-02-12T06:05:28.651Z,65.91
2019-02-12T06:07:58.036Z,65.04
2019-02-12T06:10:26.073Z,64.94
2019-02-12T06:12:52.761Z,64.46
2019-02-12T06:15:19.863Z,65.10
2019-02-12T06:17:46.442Z,65.05
2019-02-12T06:20:13.006Z,65.09
2019-02-12T06:22:39.659Z,64.85
2019-02-12T06:25:08.266Z,65.18
2019-02-12T06:27:34.735Z,64.89
2019-02-12T06:30:01.434Z,64.82
2019-02-12T06:32:27.986Z,64.07
2019-02-12T06:34:54.672Z,64.73
2019-02-12T06:37:21.277Z,64.33
2019-02-12T06:39:47.834Z,64.82
2019-02-12T06:42:14.470Z,65.07
2019-02-12T06:44:41.242Z,65.11
2019-02-12T06:47:07.978Z,64.95
2019-02-12T06:49:34.549Z,64.86
2019-02-12T06:52:01.127Z,65.58
2019-02-12T06:54:27.688Z,65.53
2019-02-12T06:56:54.361Z,66.00
2019-02-12T06:59:20.920Z,65.21
2019-02-12T07:01:47.617Z,64.99
2019-02-12T07:04:14.423Z,65.27
2019-02-12T07:06:46.850Z,65.24
2019-02-12T07:09:17.257Z,65.52
2019-02-12T07:11:49.736Z,64.74
2019-02-12T07:14:20.114Z,65.33
2019-02-12T07:16:52.512Z,64.93
2019-02-12T07:19:24.906Z,65.08
2019-02-12T07:21:57.331Z,65.34
2019-02-12T07:24:29.692Z,65.34
2019-02-12T07:27:02.086Z,65.00
2019-02-12T07:29:34.425Z,64.87
2019-02-12T07:32:04.949Z,65.26
2019-02-12T07:34:35.415Z,64.97
2019-02-12T07:37:05.923Z,64.81
2019-02-12T07:39:38.204Z,64.59
2019-02-12T07:42:08.708Z,64.04
2019-02-12T07:44:41.143Z,64.67
2019-02-12T07:47:13.485Z,64.62
2019-02-12T07:49:45.892Z,64.14
2019-02-12T07:52:18.202Z,63.76
2019-02-12T07:54:50.554Z,63.91
2019-02-12T07:57:23.006Z,62.74
2019-02-12T07:59:55.440Z,62.35
2019-02-12T08:02:27.789Z,62.33
2019-02-12T08:05:00.204Z,62.62
2019-02-12T08:07:32.760Z,62.12
2019-02-12T08:10:06.393Z,62.64
2019-02-12T08:12:38.738Z,62.19
2019-02-12T08:15:09.159Z,62.14
2019-02-12T08:17:41.587Z,62.31
2019-02-12T08:20:15.026Z,62.28
2019-02-12T08:22:47.521Z,61.53
2019-02-12T08:25:19.814Z,60.94
2019-02-12T08:27:52.214Z,61.17
2019-02-12T08:30:24.515Z,62.15
2019-02-12T08:32:57.048Z,61.67
2019-02-12T08:35:29.369Z,60.11
2019-02-12T08:37:59.934Z,59.51
2019-02-12T08:40:30.415Z,60.64
2019-02-12T08:43:02.739Z,59.59
2019-02-12T08:45:35.132Z,59.36
2019-02-12T08:48:05.646Z,59.01
2019-02-12T08:50:38.094Z,59.70
2019-02-12T08:53:10.504Z,59.85
2019-02-12T08:55:42.837Z,58.43
2019-02-12T08:58:15.165Z,58.71
2019-02-12T09:00:47.658Z,57.50
2019-02-12T09:03:20.097Z,57.98
2019-02-12T09:05:52.573Z,57.98
2019-02-12T09:08:24.945Z,56.48
2019-02-12T09:10:58.405Z,56.44
2019-02-12T09:13:31.695Z,56.79
2019-02-12T09:16:04.045Z,56.55
2019-02-12T09:18:34.487Z,57.07
2019-02-12T09:21:06.936Z,57.24
2019-02-12T09:23:37.390Z,57.49
2019-02-12T09:26:09.755Z,56.26
2019-02-12T09:28:42.100Z,56.45
2019-02-12T09:31:14.409Z,56.07
2019-02-12T09:33:45.133Z,56.99
2019-02-12T09:36:17.473Z,56.97
2019-02-12T09:38:48.001Z,56.42
2019-02-12T09:41:20.270Z,56.56
2019-02-12T09:43:52.629Z,56.42
2019-02-12T09:46:23.044Z,55.84
2019-02-12T09:48:55.497Z,55.48
2019-02-12T09:51:27.796Z,56.69
2019-02-12T09:54:08.426Z,57.00
2019-02-12T09:56:34.503Z,56.17
2019-02-12T09:59:06.848Z,56.26
2019-02-12T10:01:39.159Z,56.00
2019-02-12T10:04:09.693Z,56.01
2019-02-12T10:06:42.052Z,54.67
2019-02-12T10:09:14.497Z,55.42
2019-02-12T10:11:47.021Z,55.26
2019-02-12T10:14:19.506Z,56.19
2019-02-12T10:16:49.985Z,56.11
2019-02-12T10:19:22.329Z,55.59
2019-02-12T10:21:54.710Z,55.72
2019-02-12T10:24:27.174Z,56.12
2019-02-12T10:26:59.520Z,55.58
2019-02-12T10:29:31.930Z,56.13
2019-02-12T10:31:58.507Z,55.58
2019-02-12T10:34:25.074Z,57.39
2019-02-12T10:36:51.668Z,56.39
2019-02-12T10:39:18.682Z,56.47
2019-02-12T10:41:45.243Z,56.42
2019-02-12T10:44:11.779Z,55.72
2019-02-12T10:46:38.413Z,55.44
2019-02-12T10:49:04.993Z,55.83
2019-02-12T10:51:31.542Z,56.19
2019-02-12T10:53:58.164Z,55.15
2019-02-12T10:56:24.836Z,57.20
2019-02-12T10:58:51.532Z,55.85
2019-02-12T11:01:18.082Z,55.70
2019-02-12T11:04:41.097Z,55.21
2019-02-12T11:07:07.823Z,56.02
2019-02-12T11:09:34.437Z,56.74
2019-02-12T11:12:01.023Z,55.77
2019-02-12T11:14:27.634Z,55.13
2019-02-12T11:16:54.202Z,55.32
2019-02-12T11:19:20.804Z,55.82
2019-02-12T11:21:47.377Z,54.54
2019-02-12T11:24:14.070Z,54.71
2019-02-12T11:26:40.814Z,55.74
2019-02-12T11:29:07.409Z,55.72
2019-02-12T11:31:34.042Z,54.69
2019-02-12T11:34:00.652Z,55.45
2019-02-12T11:36:27.197Z,55.19
2019-02-12T11:38:53.855Z,55.32
2019-02-12T11:41:20.514Z,55.68
2019-02-12T11:43:47.099Z,55.90
2019-02-12T11:46:13.700Z,55.71
2019-02-12T11:48:40.356Z,56.22
2019-02-12T11:51:06.950Z,56.54
2019-02-12T11:53:33.654Z,56.77
2019-02-12T11:56:00.250Z,56.81
2019-02-12T11:58:26.796Z,56.44
2019-02-12T12:00:55.314Z,57.43
2019-02-12T12:03:21.917Z,57.53
2019-02-12T12:05:49.162Z,57.62
2019-02-12T12:08:15.823Z,57.91
2019-02-12T12:11:39.760Z,57.38
2019-02-12T12:14:06.439Z,57.46
2019-02-12T12:16:32.997Z,57.68
2019-02-12T12:18:59.584Z,57.38
2019-02-12T12:21:27.308Z,57.30
2019-02-12T12:23:53.870Z,57.82
2019-02-12T12:27:19.833Z,57.79
2019-02-12T12:29:46.499Z,57.61
2019-02-12T12:32:13.134Z,57.56
2019-02-12T12:34:39.762Z,57.71
2019-02-12T12:37:06.489Z,57.91
2019-02-12T12:39:33.062Z,57.59
2019-02-12T12:42:01.757Z,57.69
2019-02-12T12:44:28.570Z,57.53
2019-02-12T12:46:57.038Z,57.65
2019-02-12T12:49:23.647Z,58.45
2019-02-12T12:51:50.271Z,57.93
2019-02-12T12:54:16.843Z,58.38
2019-02-12T12:56:43.396Z,58.67
2019-02-12T12:59:10.048Z,58.23
2019-02-12T13:01:36.711Z,57.91
2019-02-12T13:04:03.286Z,58.53
2019-02-12T13:06:29.870Z,58.24
2019-02-12T13:08:56.517Z,58.43
2019-02-12T13:11:23.063Z,58.05
2019-02-12T13:13:50.742Z,58.16
2019-02-12T13:16:17.350Z,58.14
2019-02-12T13:18:43.922Z,58.40
2019-02-12T13:21:10.498Z,57.74
2019-02-12T13:23:37.117Z,58.31
2019-02-12T13:26:03.725Z,58.30
2019-02-12T13:28:30.380Z,58.43
2019-02-12T13:30:57.103Z,58.63
2019-02-12T13:33:23.736Z,59.54
2019-02-12T13:35:50.339Z,58.97
2019-02-12T13:38:16.888Z,58.31
2019-02-12T13:40:43.460Z,58.01
2019-02-12T13:43:10.253Z,58.46
2019-02-12T13:45:36.919Z,58.51
2019-02-12T13:48:03.537Z,57.88
2019-02-12T13:50:30.168Z,58.29
2019-02-12T13:52:56.700Z,58.52
2019-02-12T13:55:23.276Z,57.66
2019-02-12T13:57:49.894Z,58.42
2019-02-12T14:00:18.199Z,58.79
2019-02-12T14:02:44.880Z,58.59
2019-02-12T14:05:16.559Z,58.42
2019-02-12T14:07:43.275Z,58.24
2019-02-12T14:10:10.121Z,59.05
2019-02-12T14:12:36.674Z,58.29
2019-02-12T14:15:08.708Z,58.63
2019-02-12T14:17:35.301Z,58.75
2019-02-12T14:20:04.555Z,57.55
2019-02-12T14:22:31.216Z,58.15
2019-02-12T14:24:57.940Z,58.68
2019-02-12T14:27:25.498Z,58.08
2019-02-12T14:29:52.067Z,58.67
2019-02-12T14:32:18.670Z,58.63
2019-02-12T14:34:45.285Z,58.97
2019-02-12T14:37:11.833Z,58.41
2019-02-12T14:39:38.417Z,58.19
2019-02-12T14:42:05.045Z,58.39
2019-02-12T14:44:31.629Z,58.11
2019-02-12T14:46:58.226Z,57.87
2019-02-12T14:49:24.851Z,58.84
2019-02-12T14:51:51.432Z,59.41
2019-02-12T14:54:18.027Z,58.35
2019-02-12T14:56:45.058Z,58.42
2019-02-12T14:59:12.799Z,58.23
2019-02-12T15:01:39.395Z,59.34
2019-02-12T15:04:05.955Z,58.97
2019-02-12T15:06:32.597Z,60.83
2019-02-12T15:08:59.211Z,59.48
2019-02-12T15:11:25.839Z,59.38
2019-02-12T15:13:52.424Z,59.93
2019-02-12T15:16:18.988Z,59.47
2019-02-12T15:18:45.562Z,58.90
2019-02-12T15:21:12.191Z,58.37
2019-02-12T15:23:38.776Z,58.32
2019-02-12T15:26:05.304Z,58.43
2019-02-12T15:28:31.948Z,59.46
2019-02-12T15:30:58.517Z,59.72
2019-02-12T15:33:27.011Z,60.77
2019-02-12T15:35:53.578Z,60.39
2019-02-12T15:38:20.154Z,60.47
2019-02-12T15:40:46.982Z,60.56
2019-02-12T15:43:13.646Z,60.73
2019-02-12T15:45:40.319Z,61.60
2019-02-12T15:48:06.914Z,60.34
2019-02-12T15:50:33.490Z,60.78
2019-02-12T15:53:00.019Z,60.67
2019-02-12T15:55:26.611Z,60.36
2019-02-12T15:57:53.270Z,61.93
2019-02-12T16:00:20.711Z,61.82
2019-02-12T16:02:48.609Z,61.14
2019-02-12T16:05:15.285Z,60.46
2019-02-12T16:07:42.697Z,61.24
2019-02-12T16:10:17.074Z,60.67
2019-02-12T16:12:44.162Z,60.52
2019-02-12T16:15:13.654Z,60.95
2019-02-12T16:17:40.246Z,61.13
2019-02-12T16:20:07.570Z,61.80
2019-02-12T16:22:34.256Z,61.69
2019-02-12T16:25:01.200Z,60.63
2019-02-12T16:27:27.939Z,61.58
2019-02-12T16:29:54.489Z,62.22
2019-02-12T16:32:21.086Z,61.70
2019-02-12T16:34:47.690Z,61.31
2019-02-12T16:37:14.341Z,61.57
2019-02-12T16:39:41.075Z,62.30
2019-02-12T16:42:07.766Z,62.63
2019-02-12T16:44:34.590Z,62.33
2019-02-12T16:47:01.387Z,62.31
2019-02-12T16:49:28.081Z,62.11
2019-02-12T16:51:56.560Z,63.78
2019-02-12T16:54:23.131Z,62.86
2019-02-12T16:56:49.737Z,62.09
2019-02-12T16:59:16.353Z,61.96
2019-02-12T17:01:42.977Z,61.37
2019-02-12T17:04:09.728Z,62.09
2019-02-12T17:06:36.341Z,61.56
2019-02-12T17:09:04.138Z,62.07
2019-02-12T17:11:31.728Z,61.91
2019-02-12T17:16:45.778Z,62.09
2019-02-12T17:19:12.553Z,61.51
2019-02-12T17:21:39.121Z,61.96
2019-02-12T17:24:06.008Z,62.52
2019-02-12T17:26:32.577Z,61.92
2019-02-12T17:28:59.238Z,61.70
2019-02-12T17:31:25.921Z,62.07
2019-02-12T17:33:53.648Z,61.56
2019-02-12T17:36:20.466Z,61.81
2019-02-12T17:38:47.165Z,61.30
2019-02-12T17:41:13.717Z,62.72
2019-02-12T17:43:40.507Z,62.98
2019-02-12T17:46:07.108Z,62.25
2019-02-12T17:48:33.701Z,62.67
2019-02-12T17:51:00.253Z,62.51
2019-02-12T17:53:26.926Z,62.75
2019-02-12T17:55:53.560Z,62.64
2019-02-12T17:58:20.218Z,62.20
2019-02-12T18:00:46.826Z,62.57
2019-02-12T18:03:13.463Z,62.50
2019-02-12T18:05:40.099Z,62.69
2019-02-12T18:08:06.760Z,62.89
2019-02-12T18:10:33.390Z,62.92
2019-02-12T18:12:59.909Z,62.35
2019-02-12T18:15:26.607Z,62.77
2019-02-12T18:17:53.354Z,62.65
2019-02-12T18:20:26.354Z,62.78
2019-02-12T18:22:48.957Z,62.50
2019-02-12T18:25:15.542Z,63.39
2019-02-12T18:27:42.418Z,63.13
2019-02-12T18:30:14.547Z,62.96
2019-02-12T18:32:41.312Z,62.92
2019-02-12T18:35:08.358Z,63.05
2019-02-12T18:37:35.132Z,63.57
2019-02-12T18:40:05.719Z,62.61
2019-02-12T18:42:32.327Z,63.24
2019-02-12T18:44:58.923Z,63.27
2019-02-12T18:47:29.460Z,63.74
2019-02-12T18:49:56.527Z,63.92
2019-02-12T18:52:23.102Z,63.56
2019-02-12T18:54:49.906Z,63.80
2019-02-12T18:57:16.511Z,64.03
2019-02-12T18:59:43.305Z,64.19
2019-02-12T19:02:10.715Z,63.71
2019-02-12T19:04:37.473Z,63.05
2019-02-12T19:07:04.073Z,63.35
2019-02-12T19:09:33.492Z,63.35
2019-02-12T19:12:00.065Z,63.70
2019-02-12T19:14:26.689Z,64.14
2019-02-12T19:16:53.396Z,63.86
2019-02-12T19:19:19.980Z,63.70
2019-02-12T19:21:46.622Z,64.61
2019-02-12T19:25:09.645Z,64.33
2019-02-12T19:27:36.323Z,63.96
2019-02-12T19:30:08.735Z,64.06
2019-02-12T19:32:35.359Z,64.12
2019-02-12T19:35:05.337Z,64.35
2019-02-12T19:37:31.941Z,64.07
2019-02-12T19:39:58.587Z,63.89
2019-02-12T19:42:25.187Z,64.08
2019-02-12T19:44:51.794Z,64.26
2019-02-12T19:47:18.662Z,65.04
2019-02-12T19:49:45.337Z,64.60
2019-02-12T19:52:12.081Z,64.74
2019-02-12T19:54:38.661Z,65.03
2019-02-12T19:57:05.197Z,64.83
2019-02-12T19:59:32.918Z,65.00
2019-02-12T20:01:59.586Z,64.93
2019-02-12T20:04:26.199Z,64.34
2019-02-12T20:06:52.855Z,64.62
2019-02-12T20:09:20.033Z,64.97
2019-02-12T20:11:46.615Z,64.69
2019-02-12T20:14:13.286Z,65.21
2019-02-12T20:16:40.070Z,65.94
2019-02-12T20:19:06.853Z,65.50
2019-02-12T20:21:33.529Z,65.68
2019-02-12T20:24:00.638Z,65.95
2019-02-12T20:26:27.406Z,65.89
2019-02-12T20:28:53.958Z,66.20
2019-02-12T20:31:20.522Z,65.74
2019-02-12T20:33:47.255Z,66.49
2019-02-12T20:36:14.127Z,66.12
2019-02-12T20:38:40.851Z,66.65
2019-02-12T20:41:07.873Z,67.44
2019-02-12T20:43:34.552Z,67.42
2019-02-12T20:46:02.865Z,67.39
2019-02-12T20:48:30.508Z,67.52
2019-02-12T20:51:11.709Z,67.25
2019-02-12T20:53:38.574Z,67.20
2019-02-12T20:56:05.569Z,67.86
2019-02-12T20:58:32.194Z,67.82
2019-02-12T21:00:58.784Z,67.55
2019-02-12T21:03:25.582Z,67.89
2019-02-12T21:05:55.249Z,67.88
2019-02-12T21:08:22.359Z,68.35
2019-02-12T21:10:48.975Z,68.19
2019-02-12T21:13:20.919Z,67.89
2019-02-12T21:15:57.322Z,68.43
2019-02-12T21:18:24.100Z,68.45
2019-02-12T21:20:51.208Z,68.42
2019-02-12T21:23:17.768Z,68.87
2019-02-12T21:25:44.397Z,68.72
2019-02-12T21:28:11.228Z,68.46
2019-02-12T21:30:42.197Z,68.38
2019-02-12T21:33:08.861Z,68.62
2019-02-12T21:35:41.987Z,68.45
2019-02-12T21:38:10.987Z,68.65
2019-02-12T21:40:37.569Z,69.41
2019-02-12T21:43:04.546Z,69.08
2019-02-12T21:45:33.144Z,68.67
2019-02-12T21:47:59.916Z,68.62
2019-02-12T21:50:26.594Z,68.87
2019-02-12T21:52:53.246Z,68.64
2019-02-12T21:55:21.039Z,68.55
2019-02-12T21:57:47.779Z,68.43
2019-02-12T22:00:16.534Z,68.57
2019-02-12T22:02:43.380Z,68.89
2019-02-12T22:05:13.045Z,68.26
2019-02-12T22:07:39.741Z,68.65
2019-02-12T22:10:12.185Z,68.84
2019-02-12T22:12:38.973Z,68.89
2019-02-12T22:15:10.175Z,68.76
2019-02-12T22:17:38.582Z,68.97
2019-02-12T22:20:09.879Z,68.84
2019-02-12T22:22:36.495Z,69.24
2019-02-12T22:25:05.966Z,69.28
2019-02-12T22:27:40.074Z,69.11
2019-02-12T22:30:01.124Z,68.62
2019-02-12T22:32:27.727Z,69.47
2019-02-12T22:34:54.279Z,69.00
2019-02-12T22:37:20.877Z,68.43
2019-02-12T22:39:47.622Z,69.49
2019-02-12T22:42:14.189Z,69.49
2019-02-12T22:44:40.781Z,68.60
2019-02-12T22:47:07.442Z,68.51
2019-02-12T22:49:34.240Z,68.75
2019-02-12T22:52:00.986Z,69.43
2019-02-12T22:54:27.592Z,68.89
2019-02-12T22:56:54.165Z,68.27
2019-02-12T22:59:20.755Z,68.70
2019-02-12T23:01:47.382Z,68.95
2019-02-12T23:04:13.994Z,68.88
2019-02-12T23:06:40.635Z,68.89
2019-02-12T23:09:09.177Z,68.99
2019-02-12T23:11:35.854Z,68.87
2019-02-12T23:14:02.450Z,69.82
2019-02-12T23:16:29.125Z,69.68
2019-02-12T23:18:55.730Z,69.77
2019-02-12T23:21:22.408Z,69.85
2019-02-12T23:23:48.972Z,70.07
2019-02-12T23:26:15.525Z,70.12
2019-02-12T23:28:42.367Z,70.32
2019-02-12T23:31:08.963Z,70.28
2019-02-12T23:33:35.548Z,70.34
2019-02-12T23:36:02.526Z,70.86
2019-02-12T23:38:29.036Z,71.06
2019-02-12T23:40:56.103Z,70.89
2019-02-12T23:43:22.693Z,70.98
2019-02-12T23:45:49.268Z,71.00
2019-02-12T23:48:15.901Z,71.02
2019-02-12T23:50:42.606Z,71.28
2019-02-12T23:53:09.253Z,71.48
2019-02-12T23:55:35.876Z,71.77
2019-02-12T23:58:05.951Z,71.48
